Flight Track Log - Related Links

Times and Time Zones

All times are in EDT time to prevent confusion due to time zone crossing. See the GJS3706 flight status page for this flight to view local times or setup timezone preferences in your user account.

Time Position Orientation Groundspeed Altitude Reporting Facility
EDT Latitude Longitude Course Direction KTS MPH feet Rate Location/Type
Mon 07:02:20 AM 43.6519 -70.4258 270° West 191 220 4,200  Level Boston Center
Mon 07:03:20 AM 43.6636 -70.4969 283° West 214 246 6,900 2,550 Climbing Boston Center
Mon 07:04:20 AM 43.6817 -70.5942 284° West 232 267 9,300 2,050 Climbing Boston Center
Mon 07:05:20 AM 43.6894 -70.6828 277° West 251 289 11,000 1,850 Climbing Boston Center
Mon 07:06:20 AM 43.6808 -70.8067 265° West 290 334 13,000 1,900 Climbing Boston Center
Mon 07:07:00 AM 43.7167 -70.8074 270° West  Level FlightAware Approximate
Mon 07:07:20 AM 43.6739 -70.9158 265° West 313 360 14,800  Level Boston Center
Mon 07:08:20 AM 43.6653 -71.0508 265° West 324 373 17,000 2,300 Climbing Boston Center
Mon 07:09:20 AM 43.6542 -71.1747 263° West 322 371 19,400 2,100 Climbing Boston Center
Mon 07:10:20 AM 43.6472 -71.2953 265° West 322 371 21,200 1,650 Climbing Boston Center
Mon 07:11:20 AM 43.6378 -71.4189 264° West 322 371 22,700 1,450 Climbing Boston Center
Mon 07:12:20 AM 43.6286 -71.5422 264° West 327 376 24,100 1,200 Climbing Boston Center
Mon 07:13:20 AM 43.6169 -71.6714 263° West 334 384 25,100 1,050 Climbing Boston Center
Mon 07:14:20 AM 43.6072 -71.8008 264° West 339 390 26,200 1,150 Climbing Boston Center
Mon 07:15:20 AM 43.5956 -71.9414 264° West 350 403 27,400 1,200 Climbing Boston Center
Mon 07:16:20 AM 43.5836 -72.0703 263° West 355 409 28,600 950 Climbing Boston Center
Mon 07:17:20 AM 43.5733 -72.1994 264° West 355 409 29,300 700 Climbing Boston Center
Mon 07:18:20 AM 43.5611 -72.3397 263° West 355 409 30,000 700 Climbing Boston Center
Mon 07:19:20 AM 43.5508 -72.4772 264° West 355 409 30,700 650 Climbing Boston Center
Mon 07:20:20 AM 43.5381 -72.6178 263° West 365 420 31,300 650 Climbing Boston Center
Mon 07:21:20 AM 43.5253 -72.7664 263° West 379 436 32,000 650 Climbing Boston Center
Mon 07:22:20 AM 43.5122 -72.9097 263° West 389 448 32,600 650 Climbing Boston Center
Mon 07:23:20 AM 43.4972 -73.0439 261° West 389 448 33,300 700 Climbing Boston Center
Mon 07:24:20 AM 43.4817 -73.1869 262° West 384 442 34,000 700 Climbing Boston Center
Mon 07:25:20 AM 43.4681 -73.3356 263° West 390 449 34,700 600 Climbing Boston Center
Mon 07:26:20 AM 43.4544 -73.4842 263° West 390 449 35,200 500 Climbing Boston Center
Mon 07:27:20 AM 43.4403 -73.6353 263° West 396 456 35,700 400 Climbing Boston Center
Mon 07:28:20 AM 43.4242 -73.7867 262° West 396 456 36,000 150 Climbing Boston Center
Mon 07:29:20 AM 43.4117 -73.9378 264° West 406 467 36,000  Level Boston Center
Mon 07:30:20 AM 43.3950 -74.0917 262° West 406 467 36,000  Level Boston Center
Mon 07:31:20 AM 43.3781 -74.2569 262° West 401 461 36,000  Level Boston Center
Mon 07:32:20 AM 43.3631 -74.4050 262° West 406 467 36,000  Level Boston Center
Mon 07:33:20 AM 43.3458 -74.5556 261° West 406 467 36,000  Level Boston Center
Mon 07:34:20 AM 43.3303 -74.7064 262° West 406 467 36,000  Level Boston Center
Mon 07:35:20 AM 43.3147 -74.8600 262° West 406 467 36,000  Level Boston Center
Mon 07:36:20 AM 43.2989 -75.0133 262° West 406 467 36,000  Level Boston Center
Mon 07:37:20 AM 43.2847 -75.1669 263° West 412 474 36,000  Level Boston Center
Mon 07:38:20 AM 43.2667 -75.3114 260° West 407 468 36,000  Level Boston Center
Mon 07:39:20 AM 43.2506 -75.4506 261° West 401 461 36,000  Level Boston Center
Mon 07:40:20 AM 43.2319 -75.6006 260° West 406 467 36,000  Level Boston Center
Mon 07:41:20 AM 43.2153 -75.7508 261° West 411 473 36,000  Level Boston Center
Mon 07:42:20 AM 43.1981 -75.9067 261° West 411 473 36,000  Level Boston Center
Mon 07:43:20 AM 43.1808 -76.0594 261° West 411 473 36,000  Level Boston Center
Mon 07:45:21 AM 43.1608 -76.3647 265° West 406 467 36,000  Level Cleveland Center
Mon 07:46:21 AM 43.1619 -76.5183 271° West 406 467 36,000  Level Cleveland Center
Mon 07:47:21 AM 43.1611 -76.6694 270° West 406 467 36,000  Level Cleveland Center
Mon 07:48:21 AM 43.1583 -76.8403 269° West 406 467 36,000  Level Cleveland Center
Mon 07:49:21 AM 43.1592 -76.9942 270° West 406 467 36,000  Level Cleveland Center
Mon 07:50:21 AM 43.1556 -77.1508 268° West 406 467 36,000  Level Cleveland Center
Mon 07:51:21 AM 43.1558 -77.3044 270° West 411 473 36,000  Level Cleveland Center
Mon 07:52:21 AM 43.1558 -77.4611 270° West 411 473 36,000  Level Cleveland Center
Mon 07:53:21 AM 43.1536 -77.6064 269° West 418 481 36,000  Level Cleveland Center
Mon 07:54:21 AM 43.1511 -77.7658 269° West 423 487 36,000  Level Cleveland Center
Mon 07:55:21 AM 43.1486 -77.9253 269° West 423 487 36,000  Level Cleveland Center
Mon 07:56:21 AM 43.1481 -78.0819 270° West 423 487 36,000  Level Cleveland Center
Mon 07:57:21 AM 43.1450 -78.2414 269° West 423 487 36,000  Level Cleveland Center
Mon 07:58:21 AM 43.1419 -78.4008 269° West 423 487 36,000  Level Cleveland Center
Mon 07:59:21 AM 43.1367 -78.5606 267° West 423 487 36,000  Level Cleveland Center
Mon 08:00:21 AM 43.1331 -78.7197 268° West 418 481 36,000  Level Cleveland Center
Mon 08:01:21 AM 43.1292 -78.8792 268° West 424 488 36,000  Level Cleveland Center
Mon 08:02:21 AM 43.1231 -79.0358 267° West 424 488 36,000  Level Cleveland Center
Mon 08:03:33 AM 43.1000 -79.2167 260° West 420 483 36,000  Level Toronto Center
Mon 08:04:33 AM 43.1000 -79.3833 270° West 420 483 36,000  Level Toronto Center
Mon 08:05:33 AM 43.1000 -79.5500 270° West 420 483 36,000  Level Toronto Center
Mon 08:06:33 AM 43.0833 -79.7000 261° West 430 495 36,000  Level Toronto Center
Mon 08:07:33 AM 43.0833 -79.8667 270° West 430 495 36,000  Level Toronto Center
Mon 08:08:33 AM 43.0833 -80.0500 270° West 430 495 36,000  Level Toronto Center
Mon 08:09:33 AM 43.0667 -80.1833 260° West 420 483 36,000  Level Toronto Center
Mon 08:10:33 AM 43.0667 -80.3667 270° West 430 495 36,000  Level Toronto Center
Mon 08:11:33 AM 43.0667 -80.5167 270° West 430 495 36,000  Level Toronto Center
Mon 08:12:33 AM 43.0500 -80.6833 262° West 430 495 36,000  Level Toronto Center
Mon 08:13:33 AM 43.0333 -80.8500 262° West 430 495 36,000  Level Toronto Center
Mon 08:14:33 AM 43.0167 -81.0000 261° West 430 495 36,000  Level Toronto Center
Mon 08:15:33 AM 43.0167 -81.1833 270° West 430 495 36,000  Level Toronto Center
Mon 08:16:33 AM 43.0167 -81.3167 270° West 430 495 36,000  Level Toronto Center
Mon 08:17:33 AM 43.0167 -81.5000 270° West 430 495 36,000  Level Toronto Center
Mon 08:18:33 AM 43.0167 -81.6333 270° West 430 495 36,000  Level Toronto Center
Mon 08:19:33 AM 43.0167 -81.8167 270° West 430 495 36,000  Level Toronto Center
Mon 08:20:33 AM 43.0000 -81.9833 262° West 430 495 36,000  Level Toronto Center
Mon 08:21:33 AM 43.0000 -82.1333 270° West 430 495 36,000  Level Toronto Center
Mon 08:22:33 AM 43.0000 -82.3000 270° West 420 483 36,000  Level Toronto Center
Mon 08:23:33 AM 43.0000 -82.4833 270° West 420 483 36,000  Level Toronto Center
Mon 08:24:33 AM 43.0047 -82.6331 273° West 425 489 36,000  Level Cleveland Center
Mon 08:25:33 AM 43.0542 -82.7681 297° West 391 450 36,000 -350 Level Cleveland Center
Mon 08:26:33 AM 43.1231 -82.8814 310° West 381 438 35,300 -850 Descending Cleveland Center
Mon 08:27:33 AM 43.1892 -83.0064 306° West 395 455 34,300 -650 Descending Cleveland Center
Mon 08:28:33 AM 43.2006 -83.1550 276° West 390 449 34,000 -150 Descending Cleveland Center
Mon 08:29:33 AM 43.1308 -83.2886 234° Southwest 422 486 34,000 -300 Level Cleveland Center
Mon 08:30:33 AM 43.0383 -83.4125 224° Southwest 454 522 33,400 -800 Descending Cleveland Center
Mon 08:31:33 AM 42.9658 -83.5511 234° Southwest 459 528 32,400 -700 Descending Cleveland Center
Mon 08:32:33 AM 42.9408 -83.7114 258° West 437 503 32,000 -200 Descending Cleveland Center
Mon 08:33:33 AM 42.9281 -83.8753 264° West 432 497 32,000  Level Cleveland Center
Mon 08:34:33 AM 42.9169 -84.0392 265° West 437 503 32,000  Level Cleveland Center
Mon 08:36:33 AM 42.8833 -84.3667 262° West 440 506 32,000  Level Toronto Center
Mon 08:37:00 AM 42.8933 -84.4428 280° West 436 502 32,000  Level Chicago Center
Mon 08:38:02 AM 42.8825 -84.6064 265° West 435 501 32,000  Level Chicago Center
Mon 08:39:04 AM 42.8644 -84.7694 261° West 436 502 32,000  Level Chicago Center
Mon 08:40:06 AM 42.8483 -84.9317 262° West 435 501 32,000  Level Chicago Center
Mon 08:41:08 AM 42.8269 -85.1250 261° West 431 496 32,000 -194 Level Chicago Center
Mon 08:42:10 AM 42.8092 -85.2881 262° West 433 498 31,600 -1,161 Descending Chicago Center
Mon 08:43:12 AM 42.7908 -85.4567 262° West 444 511 29,600 -1,984 Descending Chicago Center
Mon 08:44:14 AM 42.7636 -85.6239 258° West 450 518 27,500 -2,016 Descending Chicago Center
Mon 08:45:17 AM 42.7350 -85.7875 257° West 444 511 25,400 -1,968 Descending Chicago Center
Mon 08:46:19 AM 42.7072 -85.9419 256° West 424 488 23,400 -1,935 Descending Chicago Center
Mon 08:47:21 AM 42.6803 -86.0906 256° West 408 470 21,400 -1,645 Descending Chicago Center
Mon 08:48:23 AM 42.6483 -86.2633 256° West 395 455 20,000 -823 Descending Chicago Center
Mon 08:49:25 AM 42.6214 -86.4033 255° West 384 442 19,700 -1,065 Descending Chicago Center
Mon 08:50:27 AM 42.5953 -86.5436 256° West 383 441 17,800 -1,887 Descending Chicago Center
Mon 08:51:29 AM 42.5697 -86.6772 255° West 367 422 15,800 -1,935 Descending Chicago Center
Mon 08:52:31 AM 42.5417 -86.8036 253° West 354 407 13,800 -1,935 Descending Chicago Center
Mon 08:53:33 AM 42.5083 -86.9247 250° West 346 398 11,800 -1,839 Descending Chicago Center
Mon 08:54:35 AM 42.4694 -87.0622 249° West 328 377 10,000 -1,016 Descending Chicago Center
Mon 08:55:37 AM 42.4417 -87.1558 248° West 272 313 9,700 -484 Descending Chicago Center
Mon 08:56:39 AM 42.4169 -87.2497 250° West 266 306 9,000 -336 Descending Chicago Center
Mon 08:57:42 AM 42.3900 -87.3453 249° West 272 313 9,000  Level Chicago Center
Mon 08:58:44 AM 42.3631 -87.4458 250° West 274 315 9,000 -194 Level Chicago Center
Mon 08:59:46 AM 42.3386 -87.5308 249° West 248 285 8,600 -677 Descending Chicago Center
Mon 09:00:48 AM 42.2822 -87.5742 210° Southwest 244 281 7,600 -774 Descending Chicago Center
Mon 09:01:50 AM 42.2322 -87.6347 222° Southwest 200 230 7,000 -629 Descending Chicago Center
Mon 09:02:52 AM 42.1969 -87.6775 222° Southwest 176 203 6,300 -871 Descending Chicago Center
Mon 09:03:54 AM 42.1572 -87.7192 218° Southwest 182 209 5,200 -1,065 Descending Chicago Center
Mon 09:04:56 AM 42.1181 -87.7642 220° Southwest 184 212 4,100 -1,157 Descending Chicago Center
Mon 09:05:17 AM 42.1000 -87.7833 218° Southwest 175 201 3,600 -1,185 Descending Chicago TRACON
Mon 09:06:17 AM 42.0667 -87.8167 217° Southwest 173 199 2,500 -1,000 Descending Chicago TRACON
Mon 09:07:11 AM 42.0333 -87.8500 217° Southwest 140 161 1,700 -895 Descending Chicago TRACON
Mon 09:08:11 AM 42.0000 -87.8833 217° Southwest 144 166 800 -900 Descending Chicago TRACON
Mon 09:10:00 AM 41.9817 -87.9067 217° Southwest  Level Estimated

Login

Don't have an account? Register now (free) for customized features, flight alerts, and more!